Time,TemperatureF,DewpointF,PressureIn,WindDirection,WindDirectionDegrees,WindSpeedMPH,WindSpeedGustMPH,Humidity,HourlyPrecipIn,Conditions,Clouds,dailyrainin,SoftwareType,DateUTC
2013-03-13 00:00:00,57.4,33.8,29.89,North,0,0.0,0.0,41,0.00,,,0.77,WUHU216HW,2013-03-13 04:00:00,
2013-03-13 00:01:00,57.4,33.8,29.89,North,0,0.0,0.0,41,0.00,,,0.00,WUHU216HW,2013-03-13 04:01:00,
2013-03-13 00:06:00,57.4,33.8,29.89,North,0,0.0,0.0,41,0.00,,,0.00,WUHU216HW,2013-03-13 04:06:00,
2013-03-13 00:11:00,57.6,34.0,29.90,North,0,0.0,0.0,41,0.00,,,0.00,WUHU216HW,2013-03-13 04:11:00,
2013-03-13 00:16:00,57.6,34.0,29.90,North,0,0.0,0.0,41,0.00,,,0.00,WUHU216HW,2013-03-13 04:16:00,
2013-03-13 00:21:00,57.8,33.6,29.89,North,0,0.0,0.0,40,0.00,,,0.00,WUHU216HW,2013-03-13 04:21:00,
2013-03-13 00:26:00,57.8,34.2,29.89,North,0,0.0,0.0,41,0.00,,,0.00,WUHU216HW,2013-03-13 04:26:00,
2013-03-13 00:31:00,58.0,33.8,29.90,North,0,0.0,0.0,40,0.00,,,0.00,WUHU216HW,2013-03-13 04:31:00,
2013-03-13 00:36:00,58.0,34.4,29.90,North,0,0.0,0.0,41,0.00,,,0.00,WUHU216HW,2013-03-13 04:36:00,
2013-03-13 00:41:00,58.1,34.5,29.90,North,0,0.0,0.0,41,0.00,,,0.00,WUHU216HW,2013-03-13 04:41:00,
2013-03-13 00:47:00,58.0,34.4,29.90,North,0,0.0,0.0,41,0.00,,,0.00,WUHU216HW,2013-03-13 04:47:00,
2013-03-13 00:52:00,58.0,34.9,29.91,North,0,0.0,0.0,42,0.00,,,0.00,WUHU216HW,2013-03-13 04:52:00,
2013-03-13 00:57:00,58.0,35.5,29.91,North,0,0.0,0.0,43,0.00,,,0.00,WUHU216HW,2013-03-13 04:57:00,
2013-03-13 01:02:00,57.8,35.9,29.91,North,0,0.0,0.0,44,0.00,,,0.00,WUHU216HW,2013-03-13 05:02:00,
2013-03-13 01:07:00,57.6,36.4,29.91,North,0,0.0,0.0,45,0.00,,,0.00,WUHU216HW,2013-03-13 05:07:00,
2013-03-13 01:13:00,57.4,36.7,29.91,North,0,0.0,0.0,46,0.00,,,0.00,WUHU216HW,2013-03-13 05:13:00,
2013-03-13 01:18:00,57.2,36.0,29.91,North,0,0.0,0.0,45,0.00,,,0.00,WUHU216HW,2013-03-13 05:18:00,
2013-03-13 01:23:00,57.1,36.4,29.92,North,0,0.0,0.0,46,0.00,,,0.00,WUHU216HW,2013-03-13 05:23:00,
2013-03-13 01:28:00,56.9,36.3,29.92,North,0,0.0,0.0,46,0.00,,,0.00,WUHU216HW,2013-03-13 05:28:00,
2013-03-13 01:33:00,56.7,36.1,29.92,North,0,0.0,0.0,46,0.00,,,0.00,WUHU216HW,2013-03-13 05:33:00,
2013-03-13 01:38:00,56.7,36.1,29.92,North,0,0.0,0.0,46,0.00,,,0.00,WUHU216HW,2013-03-13 05:38:00,
2013-03-13 01:43:00,56.5,35.9,29.93,North,0,0.0,0.0,46,0.00,,,0.00,WUHU216HW,2013-03-13 05:43:00,
2013-03-13 01:48:00,56.5,35.9,29.92,North,0,0.0,0.0,46,0.00,,,0.00,WUHU216HW,2013-03-13 05:48:00,
2013-03-13 01:53:00,56.3,35.7,29.93,North,0,0.0,0.0,46,0.00,,,0.00,WUHU216HW,2013-03-13 05:53:00,
2013-03-13 01:58:00,56.3,36.3,29.93,North,0,0.0,0.0,47,0.00,,,0.00,WUHU216HW,2013-03-13 05:58:00,
2013-03-13 02:04:00,56.3,36.3,29.93,North,0,0.0,0.0,47,0.00,,,0.00,WUHU216HW,2013-03-13 06:04:00,
2013-03-13 02:09:00,56.2,36.6,29.93,North,0,0.0,0.0,48,0.00,,,0.00,WUHU216HW,2013-03-13 06:09:00,
2013-03-13 02:14:00,56.0,36.5,29.93,North,0,0.0,0.0,48,0.00,,,0.00,WUHU216HW,2013-03-13 06:14:00,
2013-03-13 02:19:00,55.8,35.7,29.93,North,0,0.0,0.0,47,0.00,,,0.00,WUHU216HW,2013-03-13 06:19:00,
2013-03-13 02:24:00,55.6,36.2,29.93,North,0,0.0,0.0,48,0.00,,,0.00,WUHU216HW,2013-03-13 06:24:00,
2013-03-13 02:29:00,55.4,36.0,29.93,North,0,0.0,0.0,48,0.00,,,0.00,WUHU216HW,2013-03-13 06:29:00,
2013-03-13 02:34:00,55.4,37.1,29.94,North,0,0.0,0.0,50,0.00,,,0.00,WUHU216HW,2013-03-13 06:34:00,
2013-03-13 02:39:00,55.3,38.4,29.93,North,0,0.0,0.0,53,0.00,,,0.00,WUHU216HW,2013-03-13 06:39:00,
2013-03-13 02:44:00,55.1,38.2,29.94,North,0,0.0,0.0,53,0.00,,,0.00,WUHU216HW,2013-03-13 06:44:00,
2013-03-13 02:49:00,54.9,39.9,29.94,North,0,0.0,0.0,57,0.00,,,0.00,WUHU216HW,2013-03-13 06:49:00,
2013-03-13 02:54:00,54.9,39.4,29.94,North,0,0.0,0.0,56,0.00,,,0.00,WUHU216HW,2013-03-13 06:54:00,
2013-03-13 02:59:00,54.5,40.1,29.94,North,0,0.0,0.0,58,0.00,,,0.00,WUHU216HW,2013-03-13 06:59:00,
2013-03-13 03:04:00,54.4,39.9,29.94,North,0,0.0,0.0,58,0.00,,,0.00,WUHU216HW,2013-03-13 07:04:00,
2013-03-13 03:09:00,54.4,39.9,29.94,North,0,0.0,0.0,58,0.00,,,0.00,WUHU216HW,2013-03-13 07:09:00,
2013-03-13 03:14:00,54.2,39.7,29.94,North,0,0.0,0.0,58,0.00,,,0.00,WUHU216HW,2013-03-13 07:14:00,
2013-03-13 03:19:00,54.0,39.5,29.95,North,0,0.0,0.0,58,0.00,,,0.00,WUHU216HW,2013-03-13 07:19:00,
2013-03-13 03:24:00,53.8,39.3,29.95,North,0,0.0,0.0,58,0.00,,,0.00,WUHU216HW,2013-03-13 07:24:00,
2013-03-13 03:29:00,53.8,39.9,29.95,North,0,0.0,0.0,59,0.00,,,0.00,WUHU216HW,2013-03-13 07:29:00,
2013-03-13 03:34:00,53.6,39.7,29.95,North,0,0.0,0.0,59,0.00,,,0.00,WUHU216HW,2013-03-13 07:34:00,
2013-03-13 03:39:00,53.6,39.7,29.95,North,0,0.0,0.0,59,0.00,,,0.00,WUHU216HW,2013-03-13 07:39:00,
2013-03-13 03:44:00,53.5,39.5,29.95,North,0,0.0,0.0,59,0.00,,,0.00,WUHU216HW,2013-03-13 07:44:00,
2013-03-13 03:49:00,53.3,38.9,29.95,North,0,0.0,0.0,58,0.00,,,0.00,WUHU216HW,2013-03-13 07:49:00,
2013-03-13 03:55:00,53.3,38.9,29.95,North,0,0.0,0.0,58,0.00,,,0.00,WUHU216HW,2013-03-13 07:55:00,
2013-03-13 04:00:00,52.9,38.5,29.95,North,0,0.0,0.0,58,0.00,,,0.00,WUHU216HW,2013-03-13 08:00:00,
2013-03-13 04:05:00,52.7,38.8,29.96,North,0,0.0,0.0,59,0.00,,,0.00,WUHU216HW,2013-03-13 08:05:00,
2013-03-13 04:10:00,52.7,38.8,29.96,North,0,0.0,0.0,59,0.00,,,0.00,WUHU216HW,2013-03-13 08:10:00,
2013-03-13 04:15:00,52.6,38.6,29.96,North,0,0.0,0.0,59,0.00,,,0.00,WUHU216HW,2013-03-13 08:15:00,
2013-03-13 04:20:00,52.4,38.4,29.96,North,0,0.0,0.0,59,0.00,,,0.00,WUHU216HW,2013-03-13 08:20:00,
2013-03-13 04:25:00,52.2,38.3,29.96,North,0,0.0,0.0,59,0.00,,,0.00,WUHU216HW,2013-03-13 08:25:00,
2013-03-13 04:30:00,52.2,38.3,29.96,North,0,0.0,0.0,59,0.00,,,0.00,WUHU216HW,2013-03-13 08:30:00,
2013-03-13 04:35:00,51.8,37.9,29.96,North,0,0.0,0.0,59,0.00,,,0.00,WUHU216HW,2013-03-13 08:35:00,
2013-03-13 04:40:00,51.8,37.9,29.96,North,0,0.0,0.0,59,0.00,,,0.00,WUHU216HW,2013-03-13 08:40:00,
2013-03-13 04:45:00,51.7,37.7,29.96,North,0,0.0,0.0,59,0.00,,,0.00,WUHU216HW,2013-03-13 08:45:00,
2013-03-13 04:51:00,51.5,37.5,29.96,North,0,0.0,0.0,59,0.00,,,0.00,WUHU216HW,2013-03-13 08:51:00,
2013-03-13 04:56:00,51.5,37.5,29.97,North,0,0.0,0.0,59,0.00,,,0.00,WUHU216HW,2013-03-13 08:56:00,
2013-03-13 05:01:00,51.3,37.5,29.97,North,0,0.0,0.0,59,0.00,,,0.00,WUHU216HW,2013-03-13 09:01:00,
2013-03-13 05:06:00,51.3,37.9,29.97,North,0,0.0,0.0,60,0.00,,,0.00,WUHU216HW,2013-03-13 09:06:00,
2013-03-13 05:11:00,51.3,37.9,29.97,North,0,0.0,0.0,60,0.00,,,0.00,WUHU216HW,2013-03-13 09:11:00,
2013-03-13 05:16:00,50.9,37.5,29.97,North,0,0.0,0.0,60,0.00,,,0.00,WUHU216HW,2013-03-13 09:16:00,
2013-03-13 05:22:00,50.8,36.9,29.97,North,0,0.0,0.0,59,0.00,,,0.00,WUHU216HW,2013-03-13 09:22:00,
2013-03-13 05:27:00,50.6,36.7,29.97,North,0,0.0,0.0,59,0.00,,,0.00,WUHU216HW,2013-03-13 09:27:00,
2013-03-13 05:32:00,50.4,37.1,29.98,North,0,0.0,0.0,60,0.00,,,0.00,WUHU216HW,2013-03-13 09:32:00,
2013-03-13 05:37:00,50.4,37.1,29.98,North,0,0.0,0.0,60,0.00,,,0.00,WUHU216HW,2013-03-13 09:37:00,
2013-03-13 05:42:00,50.2,36.9,29.99,North,0,0.0,0.0,60,0.00,,,0.00,WUHU216HW,2013-03-13 09:42:00,
2013-03-13 05:47:00,50.0,36.7,29.99,North,0,0.0,0.0,60,0.00,,,0.00,WUHU216HW,2013-03-13 09:47:00,
2013-03-13 05:52:00,49.9,36.5,29.99,North,0,0.0,0.0,60,0.00,,,0.00,WUHU216HW,2013-03-13 09:52:00,
2013-03-13 05:57:00,49.7,36.4,29.99,North,0,0.0,0.0,60,0.00,,,0.00,WUHU216HW,2013-03-13 09:57:00,
2013-03-13 06:02:00,49.5,36.3,30.00,North,0,0.0,0.0,60,0.00,,,0.00,WUHU216HW,2013-03-13 10:02:00,
2013-03-13 06:07:00,49.5,36.6,29.99,North,0,0.0,0.0,61,0.00,,,0.00,WUHU216HW,2013-03-13 10:07:00,
2013-03-13 06:12:00,49.5,36.6,30.00,North,0,0.0,0.0,61,0.00,,,0.00,WUHU216HW,2013-03-13 10:12:00,
2013-03-13 06:17:00,49.3,36.5,30.00,North,0,0.0,0.0,61,0.00,,,0.00,WUHU216HW,2013-03-13 10:17:00,
2013-03-13 06:22:00,49.1,36.3,30.00,North,0,0.0,0.0,61,0.00,,,0.00,WUHU216HW,2013-03-13 10:22:00,
2013-03-13 06:27:00,49.1,36.3,30.00,North,0,0.0,0.0,61,0.00,,,0.00,WUHU216HW,2013-03-13 10:27:00,
2013-03-13 06:32:00,49.0,36.1,30.01,North,0,0.0,0.0,61,0.00,,,0.00,WUHU216HW,2013-03-13 10:32:00,
2013-03-13 06:38:00,48.6,35.8,30.01,North,0,0.0,0.0,61,0.00,,,0.00,WUHU216HW,2013-03-13 10:38:00,
2013-03-13 06:43:00,48.6,35.8,30.01,North,0,0.0,0.0,61,0.00,,,0.00,WUHU216HW,2013-03-13 10:43:00,
2013-03-13 06:48:00,48.6,35.8,30.01,North,0,0.0,0.0,61,0.00,,,0.00,WUHU216HW,2013-03-13 10:48:00,
2013-03-13 06:53:00,48.4,35.6,30.02,North,0,0.0,0.0,61,0.00,,,0.00,WUHU216HW,2013-03-13 10:53:00,
2013-03-13 06:58:00,48.2,35.5,30.02,North,0,0.0,0.0,61,0.00,,,0.00,WUHU216HW,2013-03-13 10:58:00,
2013-03-13 07:03:00,47.9,35.5,30.02,North,0,0.0,0.0,62,0.00,,,0.00,WUHU216HW,2013-03-13 11:03:00,
2013-03-13 07:08:00,47.9,35.5,30.03,North,0,0.0,0.0,62,0.00,,,0.00,WUHU216HW,2013-03-13 11:08:00,
2013-03-13 07:13:00,47.7,35.4,30.03,North,0,0.0,0.0,62,0.00,,,0.00,WUHU216HW,2013-03-13 11:13:00,
2013-03-13 07:18:00,47.5,35.2,30.03,North,0,0.0,0.0,62,0.00,,,0.00,WUHU216HW,2013-03-13 11:18:00,
2013-03-13 07:23:00,47.5,35.2,30.03,North,0,0.0,0.0,62,0.00,,,0.00,WUHU216HW,2013-03-13 11:23:00,
2013-03-13 07:29:00,47.2,34.8,30.03,North,0,0.0,0.0,62,0.00,,,0.00,WUHU216HW,2013-03-13 11:29:00,
2013-03-13 07:34:00,47.2,34.8,30.04,North,0,0.0,0.0,62,0.00,,,0.00,WUHU216HW,2013-03-13 11:34:00,
2013-03-13 07:39:00,47.2,34.8,30.04,North,0,0.0,0.0,62,0.00,,,0.00,WUHU216HW,2013-03-13 11:39:00,
2013-03-13 07:44:00,47.2,34.8,30.04,North,0,0.0,0.0,62,0.00,,,0.00,WUHU216HW,2013-03-13 11:44:00,
2013-03-13 07:49:00,47.0,34.7,30.04,North,0,0.0,0.0,62,0.00,,,0.00,WUHU216HW,2013-03-13 11:49:00,
2013-03-13 07:54:00,47.2,34.8,30.04,North,0,0.0,0.0,62,0.00,,,0.00,WUHU216HW,2013-03-13 11:54:00,
2013-03-13 07:59:00,47.0,34.7,30.04,North,0,0.0,0.0,62,0.00,,,0.00,WUHU216HW,2013-03-13 11:59:00,
2013-03-13 08:04:00,47.2,34.8,30.05,North,0,0.0,0.0,62,0.00,,,0.00,WUHU216HW,2013-03-13 12:04:00,
2013-03-13 08:09:00,47.0,34.7,30.05,North,0,0.0,0.0,62,0.00,,,0.00,WUHU216HW,2013-03-13 12:09:00,
2013-03-13 08:14:00,47.2,34.4,30.05,North,0,0.0,0.0,61,0.00,,,0.00,WUHU216HW,2013-03-13 12:14:00,
2013-03-13 08:19:00,47.2,34.4,30.05,North,0,0.0,0.0,61,0.00,,,0.00,WUHU216HW,2013-03-13 12:19:00,
2013-03-13 08:25:00,47.3,34.6,30.05,North,0,0.0,0.0,61,0.00,,,0.00,WUHU216HW,2013-03-13 12:25:00,
2013-03-13 08:30:00,47.5,34.7,30.05,North,0,0.0,0.0,61,0.00,,,0.00,WUHU216HW,2013-03-13 12:30:00,
2013-03-13 08:35:00,47.7,34.6,30.06,North,0,0.0,0.0,60,0.00,,,0.00,WUHU216HW,2013-03-13 12:35:00,
2013-03-13 08:40:00,47.7,34.1,30.06,North,0,0.0,0.0,59,0.00,,,0.00,WUHU216HW,2013-03-13 12:40:00,
2013-03-13 08:45:00,47.9,34.3,30.06,North,0,0.0,0.0,59,0.00,,,0.00,WUHU216HW,2013-03-13 12:45:00,
2013-03-13 08:50:00,48.1,34.9,30.06,North,0,0.0,0.0,60,0.00,,,0.00,WUHU216HW,2013-03-13 12:50:00,
2013-03-13 08:55:00,48.2,34.7,30.06,North,0,0.0,0.0,59,0.00,,,0.00,WUHU216HW,2013-03-13 12:55:00,
2013-03-13 09:00:00,48.4,34.8,30.06,North,0,0.0,0.0,59,0.00,,,0.00,WUHU216HW,2013-03-13 13:00:00,
2013-03-13 09:05:00,48.6,34.9,30.06,North,0,0.0,0.0,59,0.00,,,0.00,WUHU216HW,2013-03-13 13:05:00,
2013-03-13 09:10:00,49.0,34.8,30.07,North,0,0.0,0.0,58,0.00,,,0.00,WUHU216HW,2013-03-13 13:10:00,
2013-03-13 09:15:00,49.3,34.8,30.06,North,0,0.0,0.0,57,0.00,,,0.00,WUHU216HW,2013-03-13 13:15:00,
2013-03-13 09:20:00,50.6,34.5,30.06,North,0,0.0,0.0,54,0.00,,,0.00,WUHU216HW,2013-03-13 13:20:00,
2013-03-13 09:26:00,51.5,34.4,30.07,North,0,0.0,0.0,52,0.00,,,0.00,WUHU216HW,2013-03-13 13:26:00,
2013-03-13 09:31:00,52.0,34.5,30.07,North,0,0.0,0.0,51,0.00,,,0.00,WUHU216HW,2013-03-13 13:31:00,
2013-03-13 09:35:00,52.2,34.2,30.07,North,0,0.0,0.0,50,0.00,,,0.00,WUHU216HW,2013-03-13 13:35:00,
2013-03-13 09:41:00,52.6,33.9,30.07,North,0,0.0,0.0,49,0.00,,,0.00,WUHU216HW,2013-03-13 13:41:00,
2013-03-13 09:46:00,52.7,34.1,30.07,North,0,0.0,0.0,49,0.00,,,0.00,WUHU216HW,2013-03-13 13:46:00,
2013-03-13 09:51:00,52.9,33.1,30.08,North,0,0.0,0.0,47,0.00,,,0.00,WUHU216HW,2013-03-13 13:51:00,
2013-03-13 09:56:00,53.3,34.0,30.07,North,0,0.0,0.0,48,0.00,,,0.00,WUHU216HW,2013-03-13 13:56:00,
2013-03-13 10:01:00,52.9,33.1,30.08,North,0,0.0,0.0,47,0.00,,,0.00,WUHU216HW,2013-03-13 14:01:00,
2013-03-13 10:06:00,52.6,33.4,30.08,North,0,0.0,0.0,48,0.00,,,0.00,WUHU216HW,2013-03-13 14:06:00,
2013-03-13 10:11:00,53.5,34.7,30.08,North,0,0.0,0.0,49,0.00,,,0.00,WUHU216HW,2013-03-13 14:11:00,
2013-03-13 10:17:00,54.0,36.3,30.08,North,0,0.0,0.0,51,0.00,,,0.00,WUHU216HW,2013-03-13 14:17:00,
2013-03-13 10:22:00,54.7,36.5,30.08,North,0,0.0,0.0,50,0.00,,,0.00,WUHU216HW,2013-03-13 14:22:00,
2013-03-13 10:27:00,54.7,36.5,30.08,North,0,0.0,0.0,50,0.00,,,0.00,WUHU216HW,2013-03-13 14:27:00,
2013-03-13 10:32:00,54.9,36.0,30.08,North,0,0.0,0.0,49,0.00,,,0.00,WUHU216HW,2013-03-13 14:32:00,
2013-03-13 10:37:00,55.1,36.7,30.09,North,0,0.0,0.0,50,0.00,,,0.00,WUHU216HW,2013-03-13 14:37:00,
2013-03-13 10:42:00,54.7,35.3,30.09,North,0,0.0,0.0,48,0.00,,,0.00,WUHU216HW,2013-03-13 14:42:00,
2013-03-13 10:47:00,54.7,34.7,30.09,North,0,0.0,0.0,47,0.00,,,0.00,WUHU216HW,2013-03-13 14:47:00,
2013-03-13 10:52:00,54.9,35.5,30.09,North,0,0.0,0.0,48,0.00,,,0.00,WUHU216HW,2013-03-13 14:52:00,
2013-03-13 10:57:00,55.1,35.1,30.09,North,0,0.0,0.0,47,0.00,,,0.00,WUHU216HW,2013-03-13 14:57:00,
2013-03-13 11:02:00,55.4,34.3,30.09,North,0,0.0,0.0,45,0.00,,,0.00,WUHU216HW,2013-03-13 15:02:00,
2013-03-13 11:07:00,55.4,34.3,30.09,North,0,0.0,0.0,45,0.00,,,0.00,WUHU216HW,2013-03-13 15:07:00,
2013-03-13 11:12:00,55.6,33.9,30.08,North,0,0.0,0.0,44,0.00,,,0.00,WUHU216HW,2013-03-13 15:12:00,
2013-03-13 11:18:00,55.6,34.5,30.08,North,0,0.0,0.0,45,0.00,,,0.00,WUHU216HW,2013-03-13 15:18:00,
2013-03-13 11:23:00,55.8,34.7,30.08,North,0,0.0,0.0,45,0.00,,,0.00,WUHU216HW,2013-03-13 15:23:00,
2013-03-13 11:28:00,56.0,34.2,30.08,North,0,0.0,0.0,44,0.00,,,0.00,WUHU216HW,2013-03-13 15:28:00,
2013-03-13 11:33:00,56.3,35.1,30.08,North,0,0.0,0.0,45,0.00,,,0.00,WUHU216HW,2013-03-13 15:33:00,
2013-03-13 11:38:00,56.9,34.5,30.08,North,0,0.0,0.0,43,0.00,,,0.00,WUHU216HW,2013-03-13 15:38:00,
2013-03-13 11:43:00,56.7,34.4,30.08,North,0,0.0,0.0,43,0.00,,,0.00,WUHU216HW,2013-03-13 15:43:00,
2013-03-13 11:48:00,56.9,33.9,30.08,North,0,0.0,0.0,42,0.00,,,0.00,WUHU216HW,2013-03-13 15:48:00,
2013-03-13 11:53:00,57.4,35.6,30.08,North,0,0.0,0.0,44,0.00,,,0.00,WUHU216HW,2013-03-13 15:53:00,
2013-03-13 11:58:00,57.6,34.0,30.07,North,0,0.0,0.0,41,0.00,,,0.00,WUHU216HW,2013-03-13 15:58:00,
2013-03-13 12:03:00,57.4,33.8,30.07,North,0,0.0,0.0,41,0.00,,,0.00,WUHU216HW,2013-03-13 16:03:00,
2013-03-13 12:08:00,58.3,35.3,30.07,North,0,0.0,0.0,42,0.00,,,0.00,WUHU216HW,2013-03-13 16:08:00,
2013-03-13 12:13:00,58.7,33.0,30.07,North,0,0.0,0.0,38,0.00,,,0.00,WUHU216HW,2013-03-13 16:13:00,
2013-03-13 12:18:00,58.5,33.6,30.06,North,0,0.0,0.0,39,0.00,,,0.00,WUHU216HW,2013-03-13 16:18:00,
2013-03-13 12:23:00,58.5,32.9,30.07,North,0,0.0,0.0,38,0.00,,,0.00,WUHU216HW,2013-03-13 16:23:00,
2013-03-13 12:29:00,58.5,33.6,30.07,North,0,0.0,0.0,39,0.00,,,0.00,WUHU216HW,2013-03-13 16:29:00,
2013-03-13 12:34:00,58.7,34.4,30.06,North,0,0.0,0.0,40,0.00,,,0.00,WUHU216HW,2013-03-13 16:34:00,
2013-03-13 12:39:00,59.0,34.0,30.06,North,0,0.0,0.0,39,0.00,,,0.00,WUHU216HW,2013-03-13 16:39:00,
2013-03-13 12:44:00,59.6,33.1,30.06,North,0,0.0,0.0,37,0.00,,,0.00,WUHU216HW,2013-03-13 16:44:00,
2013-03-13 12:49:00,59.8,32.6,30.06,North,0,0.0,0.0,36,0.00,,,0.00,WUHU216HW,2013-03-13 16:49:00,
2013-03-13 12:54:00,59.9,32.7,30.06,North,0,0.0,0.0,36,0.00,,,0.00,WUHU216HW,2013-03-13 16:54:00,
2013-03-13 12:59:00,59.8,31.2,30.06,North,0,0.0,0.0,34,0.00,,,0.00,WUHU216HW,2013-03-13 16:59:00,
2013-03-13 13:04:00,59.8,31.2,30.05,North,0,0.0,0.0,34,0.00,,,0.00,WUHU216HW,2013-03-13 17:04:00,
2013-03-13 13:10:00,59.8,33.3,30.05,North,0,0.0,0.0,37,0.00,,,0.00,WUHU216HW,2013-03-13 17:10:00,
2013-03-13 13:15:00,59.8,31.2,30.04,North,0,0.0,0.0,34,0.00,,,0.00,WUHU216HW,2013-03-13 17:15:00,
2013-03-13 13:20:00,60.1,30.7,30.04,North,0,0.0,0.0,33,0.00,,,0.00,WUHU216HW,2013-03-13 17:20:00,
2013-03-13 13:25:00,60.3,33.0,30.04,North,0,0.0,0.0,36,0.00,,,0.00,WUHU216HW,2013-03-13 17:25:00,
2013-03-13 13:30:00,60.7,33.3,30.04,North,0,0.0,0.0,36,0.00,,,0.00,WUHU216HW,2013-03-13 17:30:00,
2013-03-13 13:35:00,60.8,31.3,30.03,North,0,0.0,0.0,33,0.00,,,0.00,WUHU216HW,2013-03-13 17:35:00,
2013-03-13 13:40:00,60.7,31.9,30.03,North,0,0.0,0.0,34,0.00,,,0.00,WUHU216HW,2013-03-13 17:40:00,
2013-03-13 13:45:00,60.8,31.3,30.03,North,0,0.0,0.0,33,0.00,,,0.00,WUHU216HW,2013-03-13 17:45:00,
2013-03-13 13:50:00,61.6,31.2,30.03,North,0,0.0,0.0,32,0.00,,,0.00,WUHU216HW,2013-03-13 17:50:00,
2013-03-13 13:55:00,61.2,33.1,30.02,North,0,0.0,0.0,35,0.00,,,0.00,WUHU216HW,2013-03-13 17:55:00,
2013-03-13 14:00:00,61.6,31.2,30.02,North,0,0.0,0.0,32,0.00,,,0.00,WUHU216HW,2013-03-13 18:00:00,
2013-03-13 14:05:00,61.4,31.1,30.01,North,0,0.0,0.0,32,0.00,,,0.00,WUHU216HW,2013-03-13 18:05:00,
2013-03-13 14:10:00,61.9,31.6,30.01,North,0,0.0,0.0,32,0.00,,,0.00,WUHU216HW,2013-03-13 18:10:00,
2013-03-13 14:15:00,62.3,32.6,30.01,North,0,0.0,0.0,33,0.00,,,0.00,WUHU216HW,2013-03-13 18:15:00,
2013-03-13 14:21:00,62.8,33.1,30.02,North,0,0.0,0.0,33,0.00,,,0.00,WUHU216HW,2013-03-13 18:21:00,
2013-03-13 14:26:00,63.0,38.9,30.01,North,0,0.0,0.0,41,0.00,,,0.00,WUHU216HW,2013-03-13 18:26:00,
2013-03-13 14:31:00,62.5,38.4,30.01,North,0,0.0,0.0,41,0.00,,,0.00,WUHU216HW,2013-03-13 18:31:00,
2013-03-13 14:36:00,62.8,36.7,30.01,North,0,0.0,0.0,38,0.00,,,0.00,WUHU216HW,2013-03-13 18:36:00,
2013-03-13 14:41:00,63.0,38.9,30.00,North,0,0.0,0.0,41,0.00,,,0.00,WUHU216HW,2013-03-13 18:41:00,
2013-03-13 14:46:00,63.4,42.1,30.00,North,0,0.0,0.0,46,0.00,,,0.00,WUHU216HW,2013-03-13 18:46:00,
2013-03-13 14:52:00,63.2,40.2,29.99,North,0,0.0,0.0,43,0.00,,,0.00,WUHU216HW,2013-03-13 18:52:00,
2013-03-13 14:57:00,63.4,34.3,29.99,North,0,0.0,0.0,34,0.00,,,0.00,WUHU216HW,2013-03-13 18:57:00,
2013-03-13 15:02:00,63.7,33.2,29.99,North,0,0.0,0.0,32,0.00,,,0.00,WUHU216HW,2013-03-13 19:02:00,
2013-03-13 15:07:00,63.5,32.3,29.99,North,0,0.0,0.0,31,0.00,,,0.00,WUHU216HW,2013-03-13 19:07:00,
2013-03-13 15:12:00,63.4,39.3,29.98,North,0,0.0,0.0,41,0.00,,,0.00,WUHU216HW,2013-03-13 19:12:00,
2013-03-13 15:17:00,62.5,39.5,29.98,North,0,0.0,0.0,43,0.00,,,0.00,WUHU216HW,2013-03-13 19:17:00,
2013-03-13 15:22:00,62.3,40.5,29.98,North,0,0.0,0.0,45,0.00,,,0.00,WUHU216HW,2013-03-13 19:22:00,
2013-03-13 15:27:00,61.9,41.4,29.98,North,0,0.0,0.0,47,0.00,,,0.00,WUHU216HW,2013-03-13 19:27:00,
2013-03-13 15:32:00,61.4,37.5,29.98,North,0,0.0,0.0,41,0.00,,,0.00,WUHU216HW,2013-03-13 19:32:00,
2013-03-13 15:37:00,61.2,39.6,29.98,North,0,0.0,0.0,45,0.00,,,0.00,WUHU216HW,2013-03-13 19:37:00,
2013-03-13 15:42:00,61.6,40.5,29.98,North,0,0.0,0.0,46,0.00,,,0.00,WUHU216HW,2013-03-13 19:42:00,
2013-03-13 15:47:00,60.7,40.2,29.98,North,0,0.0,0.0,47,0.00,,,0.00,WUHU216HW,2013-03-13 19:47:00,
2013-03-13 15:52:00,60.5,40.7,29.97,North,0,0.0,0.0,48,0.00,,,0.00,WUHU216HW,2013-03-13 19:52:00,
2013-03-13 15:57:00,61.2,40.7,29.97,North,0,0.0,0.0,47,0.00,,,0.00,WUHU216HW,2013-03-13 19:57:00,
2013-03-13 16:02:00,61.0,40.6,29.97,North,0,0.0,0.0,47,0.00,,,0.00,WUHU216HW,2013-03-13 20:02:00,
2013-03-13 16:07:00,61.9,40.2,29.97,North,0,0.0,0.0,45,0.00,,,0.00,WUHU216HW,2013-03-13 20:07:00,
2013-03-13 16:13:00,62.3,40.0,29.97,North,0,0.0,0.0,44,0.00,,,0.00,WUHU216HW,2013-03-13 20:13:00,
2013-03-13 16:18:00,62.6,40.9,29.97,North,0,0.0,0.0,45,0.00,,,0.00,WUHU216HW,2013-03-13 20:18:00,
2013-03-13 16:23:00,63.2,41.3,29.97,North,0,0.0,0.0,45,0.00,,,0.00,WUHU216HW,2013-03-13 20:23:00,
2013-03-13 16:28:00,62.8,40.4,29.97,North,0,0.0,0.0,44,0.00,,,0.00,WUHU216HW,2013-03-13 20:28:00,
2013-03-13 16:33:00,61.2,40.7,29.97,North,0,0.0,0.0,47,0.00,,,0.00,WUHU216HW,2013-03-13 20:33:00,
2013-03-13 16:38:00,60.7,41.4,29.97,North,0,0.0,0.0,49,0.00,,,0.00,WUHU216HW,2013-03-13 20:38:00,
2013-03-13 16:43:00,61.2,42.5,29.97,North,0,0.0,0.0,50,0.00,,,0.00,WUHU216HW,2013-03-13 20:43:00,
2013-03-13 16:48:00,61.4,42.0,29.97,North,0,0.0,0.0,49,0.00,,,0.00,WUHU216HW,2013-03-13 20:48:00,
2013-03-13 16:53:00,61.4,41.5,29.97,North,0,0.0,0.0,48,0.00,,,0.00,WUHU216HW,2013-03-13 20:53:00,
2013-03-13 16:58:00,60.7,41.9,29.97,North,0,0.0,0.0,50,0.00,,,0.00,WUHU216HW,2013-03-13 20:58:00,
2013-03-13 17:03:00,60.5,42.8,29.97,North,0,0.0,0.0,52,0.00,,,0.00,WUHU216HW,2013-03-13 21:03:00,
2013-03-13 17:08:00,60.8,43.1,29.97,North,0,0.0,0.0,52,0.00,,,0.00,WUHU216HW,2013-03-13 21:08:00,
2013-03-13 17:13:00,60.8,43.1,29.97,North,0,0.0,0.0,52,0.00,,,0.00,WUHU216HW,2013-03-13 21:13:00,
2013-03-13 17:18:00,60.7,42.5,29.97,North,0,0.0,0.0,51,0.00,,,0.00,WUHU216HW,2013-03-13 21:18:00,
2013-03-13 17:23:00,60.7,42.9,29.97,North,0,0.0,0.0,52,0.00,,,0.00,WUHU216HW,2013-03-13 21:23:00,
2013-03-13 17:29:00,60.5,42.8,29.98,North,0,0.0,0.0,52,0.00,,,0.00,WUHU216HW,2013-03-13 21:29:00,
2013-03-13 17:34:00,60.3,43.1,29.98,North,0,0.0,0.0,53,0.00,,,0.00,WUHU216HW,2013-03-13 21:34:00,
2013-03-13 17:39:00,60.1,43.8,29.98,North,0,0.0,0.0,55,0.00,,,0.00,WUHU216HW,2013-03-13 21:39:00,
2013-03-13 17:44:00,59.4,43.7,29.99,North,0,0.0,0.0,56,0.00,,,0.00,WUHU216HW,2013-03-13 21:44:00,
2013-03-13 17:49:00,58.9,43.7,29.98,North,0,0.0,0.0,57,0.00,,,0.00,WUHU216HW,2013-03-13 21:49:00,
2013-03-13 17:54:00,58.5,43.3,29.98,North,0,0.0,0.0,57,0.00,,,0.00,WUHU216HW,2013-03-13 21:54:00,
2013-03-13 17:59:00,58.3,42.7,29.99,North,0,0.0,0.0,56,0.00,,,0.00,WUHU216HW,2013-03-13 21:59:00,
2013-03-13 18:05:00,58.3,42.7,29.99,North,0,0.0,0.0,56,0.00,,,0.00,WUHU216HW,2013-03-13 22:05:00,
2013-03-13 18:10:00,58.3,43.1,29.98,North,0,0.0,0.0,57,0.00,,,0.00,WUHU216HW,2013-03-13 22:10:00,
2013-03-13 18:15:00,58.0,42.3,29.99,North,0,0.0,0.0,56,0.00,,,0.00,WUHU216HW,2013-03-13 22:15:00,
2013-03-13 18:20:00,57.8,43.1,29.99,North,0,0.0,0.0,58,0.00,,,0.00,WUHU216HW,2013-03-13 22:20:00,
2013-03-13 18:25:00,57.6,42.0,29.99,North,0,0.0,0.0,56,0.00,,,0.00,WUHU216HW,2013-03-13 22:25:00,
2013-03-13 18:30:00,57.2,42.1,29.99,North,0,0.0,0.0,57,0.00,,,0.00,WUHU216HW,2013-03-13 22:30:00,
2013-03-13 18:35:00,57.1,42.5,29.99,North,0,0.0,0.0,58,0.00,,,0.00,WUHU216HW,2013-03-13 22:35:00,
2013-03-13 18:40:00,56.7,42.1,29.99,North,0,0.0,0.0,58,0.00,,,0.00,WUHU216HW,2013-03-13 22:40:00,
2013-03-13 18:45:00,56.3,42.2,29.99,North,0,0.0,0.0,59,0.00,,,0.00,WUHU216HW,2013-03-13 22:45:00,
2013-03-13 18:50:00,56.2,42.9,29.99,North,0,0.0,0.0,61,0.00,,,0.00,WUHU216HW,2013-03-13 22:50:00,
2013-03-13 18:55:00,56.0,42.8,29.99,North,0,0.0,0.0,61,0.00,,,0.00,WUHU216HW,2013-03-13 22:55:00,
2013-03-13 19:00:00,55.8,42.6,29.99,North,0,0.0,0.0,61,0.00,,,0.00,WUHU216HW,2013-03-13 23:00:00,
2013-03-13 19:05:00,55.6,42.8,29.99,North,0,0.0,0.0,62,0.00,,,0.00,WUHU216HW,2013-03-13 23:05:00,
2013-03-13 19:10:00,55.3,42.9,30.00,North,0,0.0,0.0,63,0.00,,,0.00,WUHU216HW,2013-03-13 23:10:00,
2013-03-13 19:15:00,55.1,43.1,30.00,North,0,0.0,0.0,64,0.00,,,0.00,WUHU216HW,2013-03-13 23:15:00,
2013-03-13 19:20:00,54.7,43.1,30.00,North,0,0.0,0.0,65,0.00,,,0.00,WUHU216HW,2013-03-13 23:20:00,
2013-03-13 19:26:00,54.4,42.4,30.00,North,0,0.0,0.0,64,0.00,,,0.00,WUHU216HW,2013-03-13 23:26:00,
2013-03-13 19:31:00,54.2,43.5,30.00,North,0,0.0,0.0,67,0.00,,,0.00,WUHU216HW,2013-03-13 23:31:00,
2013-03-13 19:36:00,54.0,43.3,30.00,North,0,0.0,0.0,67,0.00,,,0.00,WUHU216HW,2013-03-13 23:36:00,
2013-03-13 19:41:00,53.8,43.1,30.00,North,0,0.0,0.0,67,0.00,,,0.00,WUHU216HW,2013-03-13 23:41:00,
2013-03-13 19:46:00,53.8,43.5,30.00,North,0,0.0,0.0,68,0.00,,,0.00,WUHU216HW,2013-03-13 23:46:00,
2013-03-13 19:52:00,53.6,43.8,30.01,North,0,0.0,0.0,69,0.00,,,0.00,WUHU216HW,2013-03-13 23:52:00,
2013-03-13 19:57:00,53.6,43.3,30.00,North,0,0.0,0.0,68,0.00,,,0.00,WUHU216HW,2013-03-13 23:57:00,
2013-03-13 20:02:00,53.5,43.6,30.01,North,0,0.0,0.0,69,0.00,,,0.00,WUHU216HW,2013-03-14 00:02:00,
2013-03-13 20:07:00,53.5,43.6,30.01,North,0,0.0,0.0,69,0.00,,,0.00,WUHU216HW,2013-03-14 00:07:00,
2013-03-13 20:12:00,53.3,43.4,30.01,North,0,0.0,0.0,69,0.00,,,0.00,WUHU216HW,2013-03-14 00:12:00,
2013-03-13 20:17:00,53.3,43.4,30.01,North,0,0.0,0.0,69,0.00,,,0.00,WUHU216HW,2013-03-14 00:17:00,
2013-03-13 20:22:00,53.3,43.4,30.01,North,0,0.0,0.0,69,0.00,,,0.00,WUHU216HW,2013-03-14 00:22:00,
2013-03-13 20:27:00,53.3,43.4,30.01,North,0,0.0,0.0,69,0.00,,,0.00,WUHU216HW,2013-03-14 00:27:00,
2013-03-13 20:32:00,53.1,43.2,30.01,North,0,0.0,0.0,69,0.00,,,0.00,WUHU216HW,2013-03-14 00:32:00,
2013-03-13 20:37:00,53.1,43.2,30.01,North,0,0.0,0.0,69,0.00,,,0.00,WUHU216HW,2013-03-14 00:37:00,
2013-03-13 20:42:00,52.9,43.0,30.01,North,0,0.0,0.0,69,0.00,,,0.00,WUHU216HW,2013-03-14 00:42:00,
2013-03-13 20:47:00,52.9,43.5,30.01,North,0,0.0,0.0,70,0.00,,,0.00,WUHU216HW,2013-03-14 00:47:00,
2013-03-13 20:53:00,52.7,43.3,30.02,North,0,0.0,0.0,70,0.00,,,0.00,WUHU216HW,2013-03-14 00:53:00,
2013-03-13 20:58:00,52.6,43.1,30.02,North,0,0.0,0.0,70,0.00,,,0.00,WUHU216HW,2013-03-14 00:58:00,
2013-03-13 21:03:00,52.6,43.1,30.02,North,0,0.0,0.0,70,0.00,,,0.00,WUHU216HW,2013-03-14 01:03:00,
2013-03-13 21:08:00,52.4,42.6,30.02,North,0,0.0,0.0,69,0.00,,,0.00,WUHU216HW,2013-03-14 01:08:00,
2013-03-13 21:13:00,52.2,42.4,30.02,North,0,0.0,0.0,69,0.00,,,0.00,WUHU216HW,2013-03-14 01:13:00,
2013-03-13 21:18:00,52.0,42.2,30.02,North,0,0.0,0.0,69,0.00,,,0.00,WUHU216HW,2013-03-14 01:18:00,
2013-03-13 21:23:00,51.8,41.7,30.02,North,0,0.0,0.0,68,0.00,,,0.00,WUHU216HW,2013-03-14 01:23:00,
2013-03-13 21:28:00,51.8,41.7,30.02,North,0,0.0,0.0,68,0.00,,,0.00,WUHU216HW,2013-03-14 01:28:00,
2013-03-13 21:33:00,51.7,41.5,30.03,North,0,0.0,0.0,68,0.00,,,0.00,WUHU216HW,2013-03-14 01:33:00,
2013-03-13 21:38:00,51.5,41.3,30.03,North,0,0.0,0.0,68,0.00,,,0.00,WUHU216HW,2013-03-14 01:38:00,
2013-03-13 21:43:00,51.5,41.3,30.03,North,0,0.0,0.0,68,0.00,,,0.00,WUHU216HW,2013-03-14 01:43:00,
2013-03-13 21:48:00,51.3,41.1,30.03,North,0,0.0,0.0,68,0.00,,,0.00,WUHU216HW,2013-03-14 01:48:00,
2013-03-13 21:53:00,51.1,41.0,30.03,North,0,0.0,0.0,68,0.00,,,0.00,WUHU216HW,2013-03-14 01:53:00,
2013-03-13 21:58:00,50.9,40.8,30.03,North,0,0.0,0.0,68,0.00,,,0.00,WUHU216HW,2013-03-14 01:58:00,
2013-03-13 22:03:00,50.9,40.8,30.03,North,0,0.0,0.0,68,0.00,,,0.00,WUHU216HW,2013-03-14 02:03:00,
2013-03-13 22:08:00,50.9,40.8,30.03,North,0,0.0,0.0,68,0.00,,,0.00,WUHU216HW,2013-03-14 02:08:00,
2013-03-13 22:13:00,51.1,41.0,30.03,North,0,0.0,0.0,68,0.00,,,0.00,WUHU216HW,2013-03-14 02:13:00,
2013-03-13 22:19:00,51.1,41.0,30.03,North,0,0.0,0.0,68,0.00,,,0.00,WUHU216HW,2013-03-14 02:19:00,
2013-03-13 22:24:00,50.9,40.8,30.04,North,0,0.0,0.0,68,0.00,,,0.00,WUHU216HW,2013-03-14 02:24:00,
2013-03-13 22:29:00,50.8,40.2,30.04,North,0,0.0,0.0,67,0.00,,,0.00,WUHU216HW,2013-03-14 02:29:00,
2013-03-13 22:34:00,50.8,39.4,30.04,North,0,0.0,0.0,65,0.00,,,0.00,WUHU216HW,2013-03-14 02:34:00,
2013-03-13 22:39:00,50.8,40.2,30.04,North,0,0.0,0.0,67,0.00,,,0.00,WUHU216HW,2013-03-14 02:39:00,
2013-03-13 22:44:00,50.8,40.6,30.04,North,0,0.0,0.0,68,0.00,,,0.00,WUHU216HW,2013-03-14 02:44:00,
2013-03-13 22:49:00,50.8,40.6,30.03,North,0,0.0,0.0,68,0.00,,,0.00,WUHU216HW,2013-03-14 02:49:00,
2013-03-13 22:54:00,50.6,40.4,30.04,North,0,0.0,0.0,68,0.00,,,0.00,WUHU216HW,2013-03-14 02:54:00,
2013-03-13 22:59:00,50.6,40.4,30.03,North,0,0.0,0.0,68,0.00,,,0.00,WUHU216HW,2013-03-14 02:59:00,
2013-03-13 23:04:00,50.6,40.4,30.04,North,0,0.0,0.0,68,0.00,,,0.00,WUHU216HW,2013-03-14 03:04:00,
2013-03-13 23:09:00,50.4,39.9,30.04,North,0,0.0,0.0,67,0.00,,,0.00,WUHU216HW,2013-03-14 03:09:00,
2013-03-13 23:14:00,50.6,40.4,30.05,North,0,0.0,0.0,68,0.00,,,0.00,WUHU216HW,2013-03-14 03:14:00,
2013-03-13 23:19:00,50.8,40.6,30.05,North,0,0.0,0.0,68,0.00,,,0.00,WUHU216HW,2013-03-14 03:19:00,
2013-03-13 23:24:00,50.6,40.4,30.05,North,0,0.0,0.0,68,0.00,,,0.00,WUHU216HW,2013-03-14 03:24:00,
2013-03-13 23:29:00,50.4,40.2,30.06,North,0,0.0,0.0,68,0.00,,,0.00,WUHU216HW,2013-03-14 03:29:00,
2013-03-13 23:34:00,50.4,40.2,30.06,North,0,0.0,0.0,68,0.00,,,0.00,WUHU216HW,2013-03-14 03:34:00,
2013-03-13 23:40:00,50.4,40.2,30.06,North,0,0.0,0.0,68,0.00,,,0.00,WUHU216HW,2013-03-14 03:40:00,
2013-03-13 23:45:00,50.4,39.1,30.07,North,0,0.0,0.0,65,0.00,,,0.00,WUHU216HW,2013-03-14 03:45:00,
2013-03-13 23:50:00,50.4,35.7,30.07,North,0,0.0,0.0,57,0.00,,,0.00,WUHU216HW,2013-03-14 03:50:00,
2013-03-13 23:55:00,50.2,34.2,30.07,North,0,0.0,0.0,54,0.00,,,0.00,WUHU216HW,2013-03-14 03:55:00,